Terminal Aerodrome Forecast
Issued by NWS

Home | Current Version | Previous Version | Text Only | Print | Product List | Glossary On
Versions: 1 2 3 4 5 6 7 8 9 10 11 12 13 14 15 16 17 18 19 20 21 22 23 24 25 26 27 28 29 30 31 32 33 34 35 36 37 38
000
FTUS45 KTWC 110900 AAA
TAFOLS
TAF AMD
KOLS 110944Z 1110/1206 02011KT P6SM VCSH SCT070 BKN110
     FM111200 VRB03KT P6SM SCT110 BKN200
     FM111700 27007KT P6SM SCT070 SCT110
     FM112100 31008KT P6SM VCTS SCT070CB BKN110
     FM120100 26005KT P6SM SCT070 BKN110=

USA.gov is the U.S. government's official web portal to all federal, state and local government web resources and services.